sensor_id;sensor_type;location;lat;lon;timestamp;P1;durP1;ratioP1;P2;durP2;ratioP2
29776;SDS011;16677;52.224;7.484;2023-04-28T21:42:41;22.43;;;18.93;;
29776;SDS011;16677;52.224;7.484;2023-04-28T21:45:11;21.83;;;19.63;;
29776;SDS011;16677;52.224;7.484;2023-04-28T21:47:38;24.70;;;20.63;;
29776;SDS011;16677;52.224;7.484;2023-04-28T21:50:08;23.50;;;20.20;;
29776;SDS011;16677;52.224;7.484;2023-04-28T21:52:36;23.43;;;21.00;;
29776;SDS011;16677;52.224;7.484;2023-04-28T21:55:03;26.10;;;23.07;;
29776;SDS011;16677;52.224;7.484;2023-04-28T21:57:31;26.70;;;23.87;;
29776;SDS011;16677;52.224;7.484;2023-04-28T21:59:59;26.70;;;23.60;;
29776;SDS011;16677;52.224;7.484;2023-04-28T22:02:27;27.80;;;24.90;;
29776;SDS011;16677;52.224;7.484;2023-04-28T22:04:55;27.83;;;23.93;;
29776;SDS011;16677;52.224;7.484;2023-04-28T22:07:23;28.77;;;25.50;;
29776;SDS011;16677;52.224;7.484;2023-04-28T22:09:55;29.10;;;25.10;;
29776;SDS011;16677;52.224;7.484;2023-04-28T22:12:23;27.87;;;25.03;;
29776;SDS011;16677;52.224;7.484;2023-04-28T22:14:50;30.83;;;27.47;;
29776;SDS011;16677;52.224;7.484;2023-04-28T22:17:17;32.73;;;27.50;;
29776;SDS011;16677;52.224;7.484;2023-04-28T22:19:45;30.47;;;27.10;;
29776;SDS011;16677;52.224;7.484;2023-04-28T22:22:12;34.17;;;29.97;;
29776;SDS011;16677;52.224;7.484;2023-04-28T22:54:08;67.28;;;52.17;;
29776;SDS011;16677;52.224;7.484;2023-04-28T22:56:36;65.20;;;47.30;;
29776;SDS011;16677;52.224;7.484;2023-04-28T22:59:03;66.73;;;46.17;;
29776;SDS011;16677;52.224;7.484;2023-04-28T23:01:31;73.47;;;47.63;;
29776;SDS011;16677;52.224;7.484;2023-04-28T23:03:58;73.13;;;47.47;;
29776;SDS011;16677;52.224;7.484;2023-04-28T23:06:26;70.63;;;46.63;;
29776;SDS011;16677;52.224;7.484;2023-04-28T23:08:54;75.57;;;48.63;;
29776;SDS011;16677;52.224;7.484;2023-04-28T23:11:22;85.00;;;60.05;;
29776;SDS011;16677;52.224;7.484;2023-04-28T23:13:50;84.05;;;61.33;;
29776;SDS011;16677;52.224;7.484;2023-04-28T23:16:18;78.03;;;58.05;;
29776;SDS011;16677;52.224;7.484;2023-04-28T23:18:45;73.07;;;55.17;;
29776;SDS011;16677;52.224;7.484;2023-04-28T23:21:13;77.18;;;55.10;;
29776;SDS011;16677;52.224;7.484;2023-04-28T23:23:40;69.75;;;53.90;;
29776;SDS011;16677;52.224;7.484;2023-04-28T23:26:08;64.20;;;44.80;;
29776;SDS011;16677;52.224;7.484;2023-04-28T23:28:35;62.50;;;39.37;;
29776;SDS011;16677;52.224;7.484;2023-04-28T23:31:02;58.97;;;38.80;;
29776;SDS011;16677;52.224;7.484;2023-04-28T23:33:30;57.23;;;36.87;;
29776;SDS011;16677;52.224;7.484;2023-04-28T23:35:57;58.73;;;39.37;;
29776;SDS011;16677;52.224;7.484;2023-04-28T23:38:26;57.73;;;40.67;;
29776;SDS011;16677;52.224;7.484;2023-04-28T23:40:53;61.53;;;40.33;;
29776;SDS011;16677;52.224;7.484;2023-04-28T23:43:21;52.90;;;35.57;;
29776;SDS011;16677;52.224;7.484;2023-04-28T23:45:48;61.83;;;40.53;;
29776;SDS011;16677;52.224;7.484;2023-04-28T23:48:15;53.67;;;35.33;;
29776;SDS011;16677;52.224;7.484;2023-04-28T23:50:43;52.27;;;35.97;;
29776;SDS011;16677;52.224;7.484;2023-04-28T23:53:10;51.97;;;36.43;;
29776;SDS011;16677;52.224;7.484;2023-04-28T23:55:39;55.47;;;43.70;;
29776;SDS011;16677;52.224;7.484;2023-04-28T23:58:06;55.97;;;35.50;;
